Time;durP1;ratioP1;P1;durP2;ratioP2;P2;SDS_P1;SDS_P2;PMS_P1;PMS_P2;Temp;Humidity;BMP_temperature;BMP_pressure;BME280_temperature;BME280_humidity;BME280_pressure;Samples;Min_cycle;Max_cycle;Signal;HPM_P1;HPM_P2
2023/05/14 00:01:46;;;;;;;6.15;5.55;;;;;;;12.62;75.18;96681.63;4920450;29;20416;-77
2023/05/14 00:04:15;;;;;;;6.63;5.00;;;;;;;12.60;74.28;96684.44;4919824;29;20061;-76
2023/05/14 00:06:43;;;;;;;8.35;6.05;;;;;;;12.59;74.50;96677.56;4919213;29;20473;-77
2023/05/14 00:09:10;;;;;;;5.55;5.05;;;;;;;12.59;74.56;96680.19;4920238;29;20052;-76
2023/05/14 00:11:38;;;;;;;5.82;5.32;;;;;;;12.60;74.36;96678.41;4920132;29;20062;-77
2023/05/14 00:14:05;;;;;;;5.32;4.82;;;;;;;12.61;75.67;96680.00;4919146;29;20059;-77
2023/05/14 00:16:33;;;;;;;5.30;4.80;;;;;;;12.62;75.47;96676.41;4917860;29;20502;-77
2023/05/14 00:19:00;;;;;;;5.97;5.28;;;;;;;12.59;74.39;96669.72;4918772;29;20051;-76
2023/05/14 00:21:30;;;;;;;6.88;5.93;;;;;;;12.54;74.05;96664.25;4918240;29;20063;-77
2023/05/14 00:23:58;;;;;;;5.90;5.10;;;;;;;12.51;74.25;96660.22;4918030;29;20060;-76
2023/05/14 00:26:25;;;;;;;6.05;5.45;;;;;;;12.52;75.53;96661.03;4917857;29;20108;-77
2023/05/14 00:28:53;;;;;;;5.18;4.68;;;;;;;12.56;76.88;96660.44;4918031;29;20052;-77
2023/05/14 00:31:20;;;;;;;6.03;5.35;;;;;;;12.61;77.57;96659.06;4918155;29;20058;-77
2023/05/14 00:33:48;;;;;;;6.30;5.07;;;;;;;12.61;77.96;96659.06;4917783;29;20056;-76
2023/05/14 00:36:15;;;;;;;5.80;5.20;;;;;;;12.61;77.71;96653.84;4917574;29;20074;-77
2023/05/14 00:38:44;;;;;;;6.43;5.82;;;;;;;12.61;79.01;96659.06;4917375;29;20052;-77
2023/05/14 00:41:12;;;;;;;6.20;5.60;;;;;;;12.63;79.45;96651.84;4917212;29;20058;-76
2023/05/14 00:43:39;;;;;;;6.07;5.47;;;;;;;12.62;79.63;96651.03;4916880;29;20087;-76
2023/05/14 00:46:07;;;;;;;5.63;5.13;;;;;;;12.63;80.34;96646.59;4917091;29;20056;-77
2023/05/14 00:48:35;;;;;;;8.05;6.13;;;;;;;12.60;78.51;96654.84;4917284;29;20052;-76
2023/05/14 00:51:03;;;;;;;6.68;6.00;;;;;;;12.56;78.40;96651.78;4916930;29;20428;-76
2023/05/14 00:53:31;;;;;;;7.43;6.25;;;;;;;12.52;77.48;96647.94;4917042;29;20063;-76
2023/05/14 00:56:00;;;;;;;7.28;6.05;;;;;;;12.50;76.72;96660.41;4916608;29;20056;-77
2023/05/14 00:58:27;;;;;;;6.65;5.63;;;;;;;12.48;77.91;96649.31;4917221;29;20135;-77
2023/05/14 01:00:55;;;;;;;6.68;6.07;;;;;;;12.48;78.41;96652.75;4916782;29;20052;-76
2023/05/14 01:03:22;;;;;;;7.15;6.45;;;;;;;12.50;79.65;96648.13;4916777;29;20531;-76
2023/05/14 01:05:59;;;;;;;7.82;6.18;;;;;;;12.51;80.83;96646.34;4916540;29;20048;-76
2023/05/14 01:08:36;;;;;;;7.43;6.38;;;;;;;12.51;80.97;96643.72;4916775;29;20087;-76
2023/05/14 01:11:08;;;;;;;7.47;6.35;;;;;;;12.50;81.47;96647.34;4916673;29;20055;-76
2023/05/14 01:13:44;;;;;;;7.95;6.63;;;;;;;12.49;81.78;96645.72;4916201;29;20063;-77
2023/05/14 01:16:13;;;;;;;7.38;6.53;;;;;;;12.44;79.85;96648.09;4916625;29;20055;-76
2023/05/14 01:18:43;;;;;;;7.78;6.60;;;;;;;12.35;77.24;96653.50;4916890;29;20048;-77
2023/05/14 01:21:24;;;;;;;9.82;7.03;;;;;;;12.27;76.10;96647.59;4916492;29;20056;-77
2023/05/14 01:23:52;;;;;;;6.88;6.18;;;;;;;12.20;76.05;96647.56;4916625;29;20053;-76
2023/05/14 01:26:20;;;;;;;8.68;6.68;;;;;;;12.14;76.27;96650.94;4916375;29;20500;-77
2023/05/14 01:28:50;;;;;;;9.02;6.93;;;;;;;12.10;76.33;96647.06;4916592;29;20052;-76
2023/05/14 01:31:26;;;;;;;8.45;6.45;;;;;;;12.11;77.74;96653.91;4916337;29;20059;-77
2023/05/14 01:33:56;;;;;;;7.93;6.25;;;;;;;12.09;78.08;96655.91;4916323;29;20063;-77
2023/05/14 01:36:26;;;;;;;8.27;7.25;;;;;;;12.06;76.97;96651.06;4916409;29;20423;-76
2023/05/14 01:38:55;;;;;;;8.52;7.32;;;;;;;12.04;77.17;96653.84;4916739;29;20048;-76
2023/05/14 01:41:25;;;;;;;9.20;7.35;;;;;;;12.00;76.48;96657.84;4916477;29;20044;-77
2023/05/14 01:43:52;;;;;;;7.57;6.78;;;;;;;11.98;77.06;96649.38;4916253;29;20496;-76
2023/05/14 01:46:22;;;;;;;8.13;6.72;;;;;;;11.95;76.51;96645.34;4916097;29;20059;-77
2023/05/14 01:48:50;;;;;;;8.43;7.40;;;;;;;11.89;75.64;96638.25;4916333;29;20500;-76
2023/05/14 01:51:18;;;;;;;7.57;6.78;;;;;;;11.84;75.47;96640.59;4916071;29;20496;-77
2023/05/14 01:53:47;;;;;;;7.78;6.97;;;;;;;11.83;75.89;96646.84;4916447;29;20103;-76
2023/05/14 01:56:14;;;;;;;7.45;6.70;;;;;;;11.84;77.93;96640.59;4916234;29;20048;-76
2023/05/14 01:58:42;;;;;;;8.32;6.75;;;;;;;11.88;79.54;96644.50;4916117;29;20056;-76
2023/05/14 02:01:09;;;;;;;7.72;6.93;;;;;;;11.90;78.83;96636.47;4916484;29;20055;-76
2023/05/14 02:03:37;;;;;;;7.82;6.57;;;;;;;11.87;78.92;96635.00;4916616;29;20085;-77
2023/05/14 02:06:04;;;;;;;10.10;6.70;;;;;;;11.86;79.60;96635.19;4916274;29;20060;-76
2023/05/14 02:08:32;;;;;;;7.32;6.60;;;;;;;11.88;81.01;96636.66;4916638;29;20111;-77
2023/05/14 02:11:01;;;;;;;8.30;7.43;;;;;;;11.91;81.52;96641.47;4915769;29;20052;-76
2023/05/14 02:13:28;;;;;;;8.73;7.28;;;;;;;11.92;82.27;96640.50;4915787;29;20052;-77
2023/05/14 02:15:56;;;;;;;8.10;7.30;;;;;;;11.94;82.91;96633.28;4915517;29;20052;-76
2023/05/14 02:18:24;;;;;;;8.90;7.63;;;;;;;11.94;82.06;96635.91;4916171;29;20141;-76
2023/05/14 02:20:51;;;;;;;8.43;6.93;;;;;;;11.91;81.69;96631.03;4916339;29;20052;-76
2023/05/14 02:23:19;;;;;;;9.25;7.20;;;;;;;11.89;80.77;96630.41;4916059;29;20405;-76
2023/05/14 02:25:57;;;;;;;9.95;7.60;;;;;;;11.84;79.42;96631.97;4919407;29;20060;-76
2023/05/14 02:28:26;;;;;;;8.20;6.93;;;;;;;11.77;78.15;96636.31;4920088;29;20052;-76
2023/05/14 02:30:58;;;;;;;8.57;7.70;;;;;;;11.74;79.93;96638.31;4919674;29;20527;-76
2023/05/14 02:33:26;;;;;;;10.98;7.30;;;;;;;11.70;78.48;96637.06;4920390;29;20147;-77
2023/05/14 02:35:54;;;;;;;7.72;6.93;;;;;;;11.66;78.55;96641.06;4920199;29;20063;-77
2023/05/14 02:38:22;;;;;;;7.07;6.40;;;;;;;11.65;79.13;96634.19;4932283;29;20036;-76
2023/05/14 02:40:49;;;;;;;8.48;6.72;;;;;;;11.65;78.37;96638.63;4938997;29;20135;-76
2023/05/14 02:43:17;;;;;;;7.05;5.97;;;;;;;11.65;78.54;96633.41;4937418;29;20111;-77
2023/05/14 02:45:46;;;;;;;7.35;6.45;;;;;;;11.65;78.89;96634.19;4936699;29;20056;-76
2023/05/14 02:48:14;;;;;;;7.78;5.88;;;;;;;11.67;79.99;96632.19;4937533;29;20119;-77
2023/05/14 02:50:41;;;;;;;8.05;7.25;;;;;;;11.71;80.92;96635.25;4935912;29;20107;-77
2023/05/14 02:53:09;;;;;;;7.82;7.05;;;;;;;11.70;79.12;96631.03;4934165;29;20048;-77
2023/05/14 02:55:36;;;;;;;8.07;7.28;;;;;;;11.72;80.83;96634.28;4934461;29;20132;-77
2023/05/14 02:58:04;;;;;;;10.23;7.97;;;;;;;11.72;81.74;96624.63;4934610;29;20143;-76
2023/05/14 03:00:31;;;;;;;8.82;7.90;;;;;;;11.75;82.93;96626.84;4934637;29;20052;-77
2023/05/14 03:03:01;;;;;;;9.48;7.78;;;;;;;11.78;82.40;96622.25;4921009;29;20508;-77
2023/05/14 03:05:29;;;;;;;8.07;7.25;;;;;;;11.76;82.31;96625.03;4919346;29;20055;-77
2023/05/14 03:07:56;;;;;;;9.95;8.48;;;;;;;11.77;83.07;96618.03;4919787;29;20154;-77
2023/05/14 03:10:24;;;;;;;9.80;8.77;;;;;;;11.78;83.20;96617.81;4919432;29;20055;-77
2023/05/14 03:12:52;;;;;;;9.88;7.80;;;;;;;11.78;83.84;96617.81;4919299;29;20405;-76
2023/05/14 03:15:20;;;;;;;9.40;8.43;;;;;;;11.82;84.32;96621.69;4918955;29;20060;-76
2023/05/14 03:17:48;;;;;;;11.57;9.52;;;;;;;11.83;84.15;96630.31;4919167;29;20135;-76
2023/05/14 03:20:17;;;;;;;9.68;8.52;;;;;;;11.85;84.89;96623.09;4919372;29;20056;-76
2023/05/14 03:22:44;;;;;;;12.23;9.23;;;;;;;11.88;85.30;96628.81;4918965;29;20051;-76
2023/05/14 03:25:12;;;;;;;14.20;9.88;;;;;;;11.90;84.94;96626.81;4918874;29;20068;-76
2023/05/14 03:27:39;;;;;;;9.13;7.70;;;;;;;11.89;84.82;96619.94;4918978;29;20059;-76
2023/05/14 03:30:08;;;;;;;9.40;8.40;;;;;;;11.87;84.15;96623.72;4918947;29;20435;-77
2023/05/14 03:32:36;;;;;;;9.40;8.40;;;;;;;11.88;85.00;96625.38;4918677;29;20063;-77
2023/05/14 03:35:04;;;;;;;10.13;8.82;;;;;;;11.89;85.49;96624.38;4918280;29;20084;-76
2023/05/14 03:37:33;;;;;;;11.23;8.80;;;;;;;11.85;83.04;96618.72;4918078;29;20062;-76
2023/05/14 03:40:01;;;;;;;10.35;8.88;;;;;;;11.81;82.00;96625.31;4919257;29;20063;-77
2023/05/14 03:42:28;;;;;;;8.18;7.38;;;;;;;11.80;82.50;96618.44;4918544;29;20056;-76
2023/05/14 03:44:56;;;;;;;12.90;8.13;;;;;;;11.79;80.93;96623.88;4918585;29;20056;-77
2023/05/14 03:47:23;;;;;;;11.00;8.32;;;;;;;11.70;79.32;96625.81;4918654;29;20056;-76
2023/05/14 03:49:51;;;;;;;9.25;8.35;;;;;;;11.65;80.83;96623.75;4918703;29;20473;-77
2023/05/14 03:52:18;;;;;;;9.15;8.13;;;;;;;11.64;80.04;96629.97;4918513;29;20052;-77
2023/05/14 03:54:47;;;;;;;9.98;8.95;;;;;;;11.57;78.89;96629.13;4917894;29;20063;-76
2023/05/14 03:57:15;;;;;;;10.80;8.70;;;;;;;11.59;81.13;96634.13;4918475;29;20048;-76
2023/05/14 03:59:42;;;;;;;13.60;9.07;;;;;;;11.61;81.92;96630.38;4918255;29;20052;-76
2023/05/14 04:02:10;;;;;;;12.85;8.52;;;;;;;11.63;82.29;96625.75;4917982;29;20056;-77
2023/05/14 04:04:37;;;;;;;9.85;8.85;;;;;;;11.64;82.09;96626.56;4918005;29;20056;-77
2023/05/14 04:07:05;;;;;;;11.82;8.90;;;;;;;11.62;80.58;96639.81;4917717;29;20052;-76
2023/05/14 04:09:32;;;;;;;13.73;8.20;;;;;;;11.57;79.62;96630.91;4918029;29;20052;-76
2023/05/14 04:12:01;;;;;;;10.38;9.05;;;;;;;11.54;79.44;96627.69;4917772;29;20052;-76
2023/05/14 04:14:29;;;;;;;9.60;8.60;;;;;;;11.51;78.98;96625.44;4917485;29;20410;-77
2023/05/14 04:16:57;;;;;;;10.80;9.00;;;;;;;11.50;79.22;96628.22;4949437;23;20047;-78
2023/05/14 04:19:26;;;;;;;9.05;8.15;;;;;;;11.50;79.51;96626.44;4937224;29;20480;-79
2023/05/14 04:21:54;;;;;;;9.93;8.18;;;;;;;11.50;79.73;96623.84;4937553;29;20048;-78
2023/05/14 04:24:21;;;;;;;10.60;8.93;;;;;;;11.50;78.95;96629.06;4936995;29;20051;-77
2023/05/14 04:26:49;;;;;;;9.00;8.07;;;;;;;11.49;78.60;96626.63;4926726;29;20059;-78
2023/05/14 04:29:18;;;;;;;12.38;8.77;;;;;;;11.47;78.75;96621.56;4918082;29;20058;-79
2023/05/14 04:31:45;;;;;;;9.07;8.18;;;;;;;11.48;79.58;96625.81;4918189;29;20052;-78
2023/05/14 04:34:13;;;;;;;9.02;8.13;;;;;;;11.53;81.08;96627.88;4917041;29;20048;-77
2023/05/14 04:36:40;;;;;;;9.10;7.93;;;;;;;11.57;81.96;96625.69;4917960;29;20058;-79
2023/05/14 04:39:08;;;;;;;10.45;8.88;;;;;;;11.61;82.70;96619.91;4911951;29;20139;-80
2023/05/14 04:41:36;;;;;;;11.00;9.52;;;;;;;11.63;82.36;96625.75;4900515;29;20097;-79
2023/05/14 04:44:07;;;;;;;12.02;9.70;;;;;;;11.62;81.44;96624.13;4899233;29;20063;-78
2023/05/14 04:46:36;;;;;;;10.05;9.02;;;;;;;11.58;80.11;96614.25;4898893;29;20064;-78
2023/05/14 04:49:04;;;;;;;12.00;10.35;;;;;;;11.54;79.79;96625.09;4897605;29;20143;-78
2023/05/14 04:51:31;;;;;;;11.52;9.40;;;;;;;11.54;79.94;96611.19;4898810;29;20144;-77
2023/05/14 04:53:59;;;;;;;10.63;8.55;;;;;;;11.55;80.79;96618.03;4898554;29;20053;-78
2023/05/14 04:56:27;;;;;;;10.95;9.85;;;;;;;11.61;82.19;96626.91;4898563;29;20108;-78
2023/05/14 04:58:54;;;;;;;10.98;9.05;;;;;;;11.66;82.17;96624.56;4908111;29;20060;-81
2023/05/14 05:01:22;;;;;;;10.65;9.40;;;;;;;11.68;81.65;96633.03;4904195;29;20061;-78
2023/05/14 05:03:51;;;;;;;10.52;9.43;;;;;;;11.71;82.58;96627.41;4914211;29;20131;-79
2023/05/14 05:06:19;;;;;;;11.68;10.25;;;;;;;11.74;83.57;96621.81;4910682;29;20054;-82
2023/05/14 05:08:46;;;;;;;12.75;10.02;;;;;;;11.78;83.68;96622.25;4918880;29;20047;-79
2023/05/14 05:11:14;;;;;;;12.57;9.25;;;;;;;11.79;83.74;96618.66;4918042;29;20066;-77
2023/05/14 05:13:41;;;;;;;9.57;8.60;;;;;;;11.80;83.43;96620.25;4915722;29;20164;-77
2023/05/14 05:16:09;;;;;;;12.50;10.57;;;;;;;11.79;82.01;96619.47;4916347;29;20054;-79
2023/05/14 05:18:37;;;;;;;10.52;9.38;;;;;;;11.78;82.49;96623.06;4904647;29;20735;-78
2023/05/14 05:21:07;;;;;;;11.90;9.77;;;;;;;11.82;82.83;96619.06;4914749;29;20059;-81
2023/05/14 05:23:34;;;;;;;11.23;9.73;;;;;;;11.83;83.50;96615.47;4917352;29;20523;-77
2023/05/14 05:26:02;;;;;;;11.68;9.77;;;;;;;11.85;84.15;96608.25;4917359;29;20048;-78
2023/05/14 05:28:29;;;;;;;10.75;9.63;;;;;;;11.82;81.96;96613.84;4917829;29;20476;-78
2023/05/14 05:30:57;;;;;;;12.32;9.20;;;;;;;11.78;80.91;96604.75;4916053;29;20595;-77
2023/05/14 05:33:25;;;;;;;9.70;8.70;;;;;;;11.80;81.66;96609.81;4917843;29;20072;-76
2023/05/14 05:35:52;;;;;;;12.45;9.77;;;;;;;11.81;81.05;96611.44;4917104;29;20055;-77
2023/05/14 05:38:21;;;;;;;10.60;9.57;;;;;;;11.80;80.91;96608.00;4915440;29;20424;-77
2023/05/14 05:40:49;;;;;;;11.48;9.40;;;;;;;11.82;81.30;96607.81;4916791;29;20519;-78
2023/05/14 05:43:17;;;;;;;11.77;9.13;;;;;;;11.83;81.64;96609.41;4917727;29;20060;-78
2023/05/14 05:45:45;;;;;;;11.93;10.48;;;;;;;11.86;82.42;96606.44;4918045;29;20056;-78
2023/05/14 05:48:12;;;;;;;10.63;9.38;;;;;;;11.89;83.28;96609.50;4917586;29;20052;-80
2023/05/14 05:50:40;;;;;;;11.00;9.40;;;;;;;11.93;83.66;96605.50;4918330;29;20052;-81
2023/05/14 05:53:08;;;;;;;11.38;10.23;;;;;;;11.97;84.53;96605.16;4918443;29;20048;-82
2023/05/14 05:55:36;;;;;;;12.50;10.23;;;;;;;12.00;84.08;96604.75;4907009;29;20420;-80
2023/05/14 05:58:04;;;;;;;11.77;10.07;;;;;;;12.02;83.75;96598.34;4917945;29;20056;-79
2023/05/14 06:00:32;;;;;;;10.82;9.32;;;;;;;12.04;83.90;96606.00;4920000;29;20427;-81
2023/05/14 06:02:59;;;;;;;12.90;9.88;;;;;;;12.03;82.10;96604.41;4920162;29;20048;-82
2023/05/14 06:05:27;;;;;;;11.00;9.73;;;;;;;12.02;81.04;96603.56;4920003;29;20048;-81
2023/05/14 06:07:55;;;;;;;14.38;10.20;;;;;;;12.03;81.45;96605.19;4920466;29;20495;-78
2023/05/14 06:10:23;;;;;;;12.35;10.45;;;;;;;12.05;80.90;96607.63;4918861;29;20063;-79
2023/05/14 06:12:52;;;;;;;10.23;9.13;;;;;;;12.08;81.63;96607.22;4917808;29;20048;-78
2023/05/14 06:15:20;;;;;;;11.25;10.05;;;;;;;12.13;82.66;96602.22;4917662;29;20064;-80
2023/05/14 06:17:47;;;;;;;10.73;9.60;;;;;;;12.16;82.52;96607.09;4918101;29;20052;-80
2023/05/14 06:20:15;;;;;;;11.15;9.70;;;;;;;12.21;83.10;96611.75;4918996;29;20055;-85
2023/05/14 06:22:43;;;;;;;12.75;9.80;;;;;;;12.25;81.34;96612.97;4918503;29;20062;-85
2023/05/14 06:25:11;;;;;;;12.50;10.10;;;;;;;12.25;81.15;96613.78;4918096;29;20139;-85
2023/05/14 06:27:38;;;;;;;11.32;9.70;;;;;;;12.28;81.00;96607.34;4917983;29;20056;-80
2023/05/14 06:30:09;;;;;;;10.88;9.68;;;;;;;12.32;80.49;96612.00;4916265;29;20063;-83
2023/05/14 06:32:36;;;;;;;10.63;9.52;;;;;;;12.38;81.98;96614.88;4899184;29;20048;-81
2023/05/14 06:35:05;;;;;;;11.18;9.98;;;;;;;12.42;82.36;96614.28;4914490;29;20080;-80
2023/05/14 06:37:32;;;;;;;11.00;10.00;;;;;;;12.47;82.21;96611.09;4916704;29;20104;-76
2023/05/14 06:40:00;;;;;;;12.65;9.30;;;;;;;12.52;82.36;96619.16;4917689;29;20056;-78
2023/05/14 06:42:28;;;;;;;11.55;10.38;;;;;;;12.57;82.34;96617.59;4918666;29;20056;-81
2023/05/14 06:44:55;;;;;;;11.45;9.95;;;;;;;12.65;82.12;96616.63;4917400;29;20058;-78
2023/05/14 06:47:25;;;;;;;12.43;10.27;;;;;;;12.68;80.86;96613.63;4918509;29;20052;-80
2023/05/14 06:49:52;;;;;;;10.80;9.70;;;;;;;12.75;81.62;96608.41;4918245;29;20477;-78
2023/05/14 06:52:20;;;;;;;12.35;9.80;;;;;;;12.82;81.89;96613.69;4917845;29;20058;-83
2023/05/14 06:54:47;;;;;;;11.75;10.27;;;;;;;12.87;81.50;96617.31;4918356;29;20048;-80
2023/05/14 06:57:15;;;;;;;12.85;10.27;;;;;;;12.90;80.17;96614.31;4920405;29;20063;-83
2023/05/14 06:59:42;;;;;;;12.93;10.15;;;;;;;12.95;79.23;96616.34;4919509;29;20078;-82
2023/05/14 07:02:10;;;;;;;12.85;9.90;;;;;;;13.00;80.38;96616.56;4919519;29;20062;-77
2023/05/14 07:04:39;;;;;;;10.75;9.38;;;;;;;13.06;80.07;96623.63;4919217;29;20052;-78
2023/05/14 07:07:09;;;;;;;11.98;9.48;;;;;;;13.09;79.79;96623.22;4922254;29;20048;-79
2023/05/14 07:09:36;;;;;;;13.30;10.27;;;;;;;13.12;78.07;96615.00;4919221;29;20428;-77
2023/05/14 07:12:05;;;;;;;13.00;9.25;;;;;;;13.11;76.57;96618.59;4920634;29;20134;-78
2023/05/14 07:14:33;;;;;;;10.35;9.25;;;;;;;13.11;75.96;96620.41;4922471;29;20052;-79
2023/05/14 07:17:00;;;;;;;11.85;9.43;;;;;;;13.14;76.68;96617.41;4923108;29;20633;-76
2023/05/14 07:19:29;;;;;;;10.35;8.70;;;;;;;13.16;76.05;96610.97;4922136;29;20143;-78
2023/05/14 07:21:57;;;;;;;13.15;9.50;;;;;;;13.21;76.05;96613.00;4922089;29;20054;-79
2023/05/14 07:24:25;;;;;;;11.15;8.32;;;;;;;13.22;74.81;96608.56;4924223;29;20056;-79
2023/05/14 07:26:53;;;;;;;10.23;8.95;;;;;;;13.23;74.25;96607.53;4928126;29;20058;-81
2023/05/14 07:29:20;;;;;;;12.23;8.73;;;;;;;13.25;73.90;96603.75;4927671;29;20052;-80
2023/05/14 07:31:48;;;;;;;9.70;8.70;;;;;;;13.29;73.80;96602.34;4925621;29;20052;-80
2023/05/14 07:34:16;;;;;;;9.40;8.50;;;;;;;13.32;74.21;96598.56;4923544;29;20139;-80
2023/05/14 07:36:43;;;;;;;9.68;8.68;;;;;;;13.38;74.86;96593.31;4922535;29;20052;-78
2023/05/14 07:39:12;;;;;;;8.95;8.05;;;;;;;13.46;74.16;96584.44;4923052;29;20080;-78
2023/05/14 07:41:40;;;;;;;8.40;7.60;;;;;;;13.53;72.46;96600.19;4922554;29;20083;-80
2023/05/14 07:44:07;;;;;;;8.73;7.45;;;;;;;13.58;71.53;96590.72;4922590;29;20508;-79
2023/05/14 07:46:35;;;;;;;7.80;7.00;;;;;;;13.63;71.30;96597.19;4923802;29;20062;-79
2023/05/14 07:49:03;;;;;;;7.45;6.75;;;;;;;13.71;70.34;96596.97;4922797;29;20083;-78
2023/05/14 07:51:32;;;;;;;7.65;6.28;;;;;;;13.75;68.99;96601.63;4923138;29;20131;-79
2023/05/14 07:53:59;;;;;;;6.70;6.05;;;;;;;13.79;68.04;96599.38;4922967;29;20055;-80
2023/05/14 07:56:28;;;;;;;6.65;6.05;;;;;;;13.82;67.83;96604.25;4923063;29;20056;-78
2023/05/14 07:58:56;;;;;;;7.60;6.85;;;;;;;13.86;67.44;96605.44;4924174;29;20052;-79
2023/05/14 08:01:24;;;;;;;7.68;6.47;;;;;;;13.88;67.15;96598.16;4922631;29;20504;-78
2023/05/14 08:03:51;;;;;;;7.50;6.80;;;;;;;13.91;67.11;96607.47;4922999;29;20059;-78
2023/05/14 08:06:20;;;;;;;6.97;5.85;;;;;;;13.92;66.76;96609.88;4923414;29;20052;-78
2023/05/14 08:08:48;;;;;;;6.68;6.07;;;;;;;13.93;66.63;96611.50;4924929;29;20164;-78
2023/05/14 08:11:15;;;;;;;6.80;6.20;;;;;;;13.95;67.31;96601.63;4925247;29;20088;-78
2023/05/14 08:13:44;;;;;;;7.65;6.28;;;;;;;13.98;66.00;96597.78;4923628;29;20063;-79
2023/05/14 08:16:12;;;;;;;6.82;6.13;;;;;;;13.97;65.98;96601.38;4913920;29;20054;-78
2023/05/14 08:18:39;;;;;;;6.95;5.85;;;;;;;13.97;65.86;96596.97;4922052;29;20067;-78
2023/05/14 08:21:07;;;;;;;7.97;5.07;;;;;;;13.99;65.92;96588.88;4921964;29;20095;-80
2023/05/14 08:23:35;;;;;;;6.53;4.40;;;;;;;14.02;65.74;96594.53;4920945;29;20048;-78
2023/05/14 08:26:02;;;;;;;4.90;4.40;;;;;;;14.09;65.37;96594.53;4922457;29;20059;-80
2023/05/14 08:28:30;;;;;;;5.28;4.70;;;;;;;14.15;65.69;96590.28;4920691;29;20085;-77
2023/05/14 08:30:59;;;;;;;4.38;3.45;;;;;;;14.21;64.79;96594.69;4921529;29;20071;-77
2023/05/14 08:33:26;;;;;;;4.20;3.83;;;;;;;14.24;64.41;96596.94;4921353;29;20064;-78
2023/05/14 08:35:55;;;;;;;4.20;3.80;;;;;;;14.26;64.12;96596.75;4921569;29;20052;-76
2023/05/14 08:38:22;;;;;;;4.18;3.78;;;;;;;14.26;64.05;96594.91;4922050;29;20058;-79
2023/05/14 08:40:56;;;;;;;4.72;4.32;;;;;;;14.26;62.63;96586.25;4921920;29;20048;-79
2023/05/14 08:43:26;;;;;;;4.13;3.67;;;;;;;14.25;63.98;96584.63;4921659;29;20048;-77
2023/05/14 08:46:00;;;;;;;4.25;3.83;;;;;;;14.29;64.29;96584.00;4921374;29;20116;-76
2023/05/14 08:48:32;;;;;;;4.22;3.83;;;;;;;14.33;65.39;96585.19;4922609;29;20062;-78
2023/05/14 08:51:01;;;;;;;4.40;4.00;;;;;;;14.40;64.57;96579.94;4922065;29;20598;-78
2023/05/14 08:53:28;;;;;;;4.88;3.88;;;;;;;14.46;64.19;96579.13;4921430;29;20059;-77
2023/05/14 08:55:56;;;;;;;4.47;4.07;;;;;;;14.51;63.53;96575.88;4921093;29;20063;-78
2023/05/14 08:58:26;;;;;;;4.43;4.03;;;;;;;14.54;63.41;96575.44;4921402;29;20056;-78
2023/05/14 09:00:54;;;;;;;5.15;4.28;;;;;;;14.55;63.68;96577.91;4921849;29;20055;-77
2023/05/14 09:03:24;;;;;;;5.82;3.80;;;;;;;14.57;63.00;96580.31;4922574;29;20056;-79
2023/05/14 09:05:52;;;;;;;4.45;3.90;;;;;;;14.59;63.31;96576.47;4920068;29;20048;-77
2023/05/14 09:08:19;;;;;;;5.63;4.88;;;;;;;14.61;63.15;96568.41;4920636;29;20504;-78
2023/05/14 09:10:47;;;;;;;5.60;4.57;;;;;;;14.61;63.50;96566.56;4921481;29;20060;-77
2023/05/14 09:13:14;;;;;;;5.82;4.93;;;;;;;14.65;63.80;96571.41;4921470;29;20066;-78
2023/05/14 09:15:42;;;;;;;4.82;4.15;;;;;;;14.72;63.97;96577.44;4920221;29;20044;-77
2023/05/14 09:18:10;;;;;;;5.00;4.50;;;;;;;14.75;63.62;96572.56;4920017;29;20066;-80
2023/05/14 09:20:39;;;;;;;4.93;4.43;;;;;;;14.80;63.54;96570.16;4920834;29;20543;-78
2023/05/14 09:23:07;;;;;;;4.85;4.43;;;;;;;14.89;63.99;96570.72;4921107;29;20145;-80
2023/05/14 09:25:34;;;;;;;5.65;4.85;;;;;;;14.94;64.61;96572.72;4920155;29;20052;-79
2023/05/14 09:28:06;;;;;;;4.80;4.30;;;;;;;14.95;63.02;96566.44;4921098;29;20428;-79
2023/05/14 09:30:35;;;;;;;4.38;3.97;;;;;;;14.95;63.26;96561.16;4921661;29;20457;-80
2023/05/14 09:33:03;;;;;;;4.80;4.40;;;;;;;14.94;63.83;96564.81;4922186;29;20059;-78
2023/05/14 09:35:32;;;;;;;5.78;5.18;;;;;;;14.94;63.46;96565.63;4919958;29;20044;-78
2023/05/14 09:38:01;;;;;;;5.70;4.72;;;;;;;14.92;63.41;96561.59;4922866;29;20103;-78
2023/05/14 09:40:28;;;;;;;8.30;5.45;;;;;;;14.92;63.57;96556.34;4921380;29;20048;-78
2023/05/14 09:42:56;;;;;;;6.00;5.38;;;;;;;14.93;63.22;96544.81;4921207;29;20052;-78
2023/05/14 09:45:24;;;;;;;5.40;4.57;;;;;;;14.96;63.44;96552.28;4919339;29;20508;-78
2023/05/14 09:47:52;;;;;;;5.47;4.85;;;;;;;15.01;63.23;96549.81;4919272;29;20052;-79
2023/05/14 09:50:19;;;;;;;6.97;5.18;;;;;;;15.05;63.48;96543.13;4918654;29;20075;-78
2023/05/14 09:52:47;;;;;;;4.47;4.07;;;;;;;15.11;64.42;96539.69;4919922;29;20060;-78
2023/05/14 09:55:16;;;;;;;6.32;4.93;;;;;;;15.14;62.57;96539.25;4920588;29;20044;-78
2023/05/14 09:57:44;;;;;;;4.75;4.35;;;;;;;15.17;62.86;96528.28;4919944;29;20051;-79
2023/05/14 10:00:13;;;;;;;4.70;4.30;;;;;;;15.21;62.31;96532.09;4919423;29;20055;-78
2023/05/14 10:02:43;;;;;;;4.65;4.20;;;;;;;15.27;61.61;96533.09;4919845;29;20052;-77
2023/05/14 10:05:12;;;;;;;5.22;4.72;;;;;;;15.30;61.63;96523.97;4920049;29;20082;-76
2023/05/14 10:07:44;;;;;;;6.38;4.45;;;;;;;15.31;61.16;96528.22;4918874;29;20048;-78
2023/05/14 10:10:15;;;;;;;4.97;4.28;;;;;;;15.35;61.31;96529.38;4920052;29;20072;-78
2023/05/14 10:12:51;;;;;;;4.50;4.07;;;;;;;15.36;61.35;96525.75;4910128;29;20095;-76
2023/05/14 10:15:21;;;;;;;5.63;3.90;;;;;;;15.44;61.68;96528.13;4900328;29;20080;-78
2023/05/14 10:17:54;;;;;;;5.43;3.80;;;;;;;15.50;61.48;96522.00;4978361;23;20066;-81
2023/05/14 10:20:25;;;;;;;5.63;4.38;;;;;;;15.60;61.65;96518.91;4968395;29;20051;-80
2023/05/14 10:22:53;;;;;;;5.07;3.55;;;;;;;15.66;60.85;96516.22;4962947;29;20062;-78
2023/05/14 10:25:21;;;;;;;4.28;3.88;;;;;;;15.72;60.86;96525.09;4959903;29;20065;-80
2023/05/14 10:27:51;;;;;;;3.92;3.53;;;;;;;15.76;60.34;96522.81;4948126;28;20056;-80
2023/05/14 10:30:22;;;;;;;4.10;3.70;;;;;;;15.77;60.64;96516.56;4969963;29;20054;-80
2023/05/14 10:33:07;;;;;;;4.03;3.65;;;;;;;15.79;60.29;96509.25;4976863;29;20087;-79
2023/05/14 10:35:57;;;;;;;4.47;4.03;;;;;;;15.81;59.56;96502.75;4949301;29;20044;-81
2023/05/14 10:38:27;;;;;;;4.22;3.45;;;;;;;15.83;60.86;96499.88;4951843;29;20054;-80
2023/05/14 10:40:57;;;;;;;4.63;3.60;;;;;;;15.90;60.37;96500.66;4955703;29;20063;-80
2023/05/14 10:44:14;;;;;;;4.25;3.85;;;;;;;16.00;60.49;96506.19;4956556;29;20056;-79
2023/05/14 10:47:26;;;;;;;5.10;4.00;;;;;;;16.05;59.64;96513.47;4975442;29;20042;-80
2023/05/14 11:20:58;;;;;;;3.35;3.05;;;;;;;16.63;55.89;96472.69;4932885;29;20048;-80
2023/05/14 11:23:26;;;;;;;3.10;2.90;;;;;;;16.71;56.85;96458.41;4933842;29;20052;-80
2023/05/14 11:25:56;;;;;;;3.55;3.25;;;;;;;16.81;56.74;96464.75;4934556;29;20094;-80
2023/05/14 11:28:27;;;;;;;3.80;3.40;;;;;;;16.93;56.93;96462.16;4951107;29;20067;-80
2023/05/14 11:30:56;;;;;;;3.80;3.45;;;;;;;17.05;55.91;96473.53;4959928;29;20058;-79
2023/05/14 11:33:24;;;;;;;3.25;2.95;;;;;;;17.14;55.60;96474.00;4961068;29;20047;-79
2023/05/14 11:35:53;;;;;;;3.90;3.50;;;;;;;17.16;55.08;96469.31;4961050;29;20055;-79
2023/05/14 11:38:23;;;;;;;3.35;3.05;;;;;;;17.17;55.89;96460.38;4961265;29;20031;-80
2023/05/14 11:40:54;;;;;;;3.13;2.92;;;;;;;17.23;55.05;96461.28;4960961;29;20055;-80
2023/05/14 11:43:23;;;;;;;3.28;2.97;;;;;;;17.27;55.28;96460.63;4961096;29;20103;-80
2023/05/14 11:45:53;;;;;;;2.88;2.65;;;;;;;17.35;54.97;96458.69;4961273;29;20034;-80
2023/05/14 11:48:21;;;;;;;5.18;3.85;;;;;;;17.37;54.12;96456.63;4961252;29;20095;-80
2023/05/14 11:50:51;;;;;;;3.63;3.33;;;;;;;17.37;54.54;96462.69;4960645;29;20038;-79
2023/05/14 11:53:19;;;;;;;3.08;2.88;;;;;;;17.37;54.19;96456.63;4960545;29;20063;-80
2023/05/14 11:55:49;;;;;;;3.35;2.97;;;;;;;17.37;54.27;96451.34;4960487;29;20074;-80
2023/05/14 11:58:18;;;;;;;3.47;3.17;;;;;;;17.38;53.74;96455.56;4960219;29;20044;-79
2023/05/14 12:00:50;;;;;;;6.13;3.30;;;;;;;17.38;53.65;96452.94;4960602;29;20047;-80
2023/05/14 12:03:23;;;;;;;4.18;3.40;;;;;;;17.40;54.19;96450.88;4960510;29;20117;-80
2023/05/14 12:05:56;;;;;;;3.50;3.20;;;;;;;17.45;53.95;96445.75;4961626;29;20067;-82
2023/05/14 12:08:26;;;;;;;;;;;;;;;17.54;54.43;96457.56;4962217;29;20036;-83
2023/05/14 12:10:57;;;;;;;3.60;2.75;;;;;;;17.57;53.45;96449.16;4961993;29;19907;-82